Time,TemperatureF,DewpointF,PressureIn,WindDirection,WindDirectionDegrees,WindSpeedMPH,WindSpeedGustMPH,Humidity,HourlyPrecipIn,Conditions,Clouds,dailyrainin,SoftwareType,DateUTC
2013-03-03 00:02:00,35.2,28.7,30.25,NNW,329,0.0,0.0,77,0.00,,---,0.00,VWS V14.01,2013-03-03 06:02:00,
2013-03-03 00:07:00,35.6,28.1,30.24,NNW,330,0.0,0.0,74,0.00,,---,0.00,VWS V14.01,2013-03-03 06:07:00,
2013-03-03 00:12:00,35.8,28.0,30.24,NNW,329,0.0,0.0,73,0.00,,---,0.00,VWS V14.01,2013-03-03 06:12:00,
2013-03-03 00:18:00,36.0,27.9,30.24,NNW,329,0.0,0.0,72,0.00,,---,0.00,VWS V14.01,2013-03-03 06:18:00,
2013-03-03 00:23:00,35.1,27.7,30.24,NNW,329,0.0,0.0,74,0.00,,---,0.00,VWS V14.01,2013-03-03 06:23:00,
2013-03-03 00:28:00,35.4,27.3,30.23,NNW,329,0.0,0.0,72,0.00,,---,0.00,VWS V14.01,2013-03-03 06:28:00,
2013-03-03 00:33:00,36.1,26.9,30.24,NNW,329,0.0,0.0,69,0.00,,---,0.00,VWS V14.01,2013-03-03 06:33:00,
2013-03-03 00:38:00,36.5,27.0,30.23,NNW,329,0.0,0.0,68,0.00,,---,0.00,VWS V14.01,2013-03-03 06:38:00,
2013-03-03 00:43:00,35.9,27.1,30.23,NNW,329,0.0,0.0,70,0.00,,---,0.00,VWS V14.01,2013-03-03 06:43:00,
2013-03-03 00:48:00,35.4,27.0,30.23,NNW,329,0.0,0.0,71,0.00,,---,0.00,VWS V14.01,2013-03-03 06:48:00,
2013-03-03 00:53:00,35.2,27.1,30.23,NNW,329,0.0,0.0,72,0.00,,---,0.00,VWS V14.01,2013-03-03 06:53:00,
2013-03-03 00:58:00,35.1,26.7,30.23,NNW,329,0.0,0.0,71,0.00,,---,0.00,VWS V14.01,2013-03-03 06:58:00,
2013-03-03 01:03:00,35.4,26.3,30.23,NNW,329,0.0,0.0,69,0.00,,---,0.00,VWS V14.01,2013-03-03 07:03:00,
2013-03-03 01:08:00,35.6,26.8,30.23,NNW,329,0.0,0.0,70,0.00,,---,0.00,VWS V14.01,2013-03-03 07:08:00,
2013-03-03 01:13:00,35.4,27.0,30.24,NNW,329,0.0,0.0,71,0.00,,---,0.00,VWS V14.01,2013-03-03 07:13:00,
2013-03-03 01:19:00,34.9,27.1,30.24,NNW,329,0.0,0.0,73,0.00,,---,0.00,VWS V14.01,2013-03-03 07:19:00,
2013-03-03 01:24:00,34.5,27.1,30.24,NNW,329,0.0,0.0,74,0.00,,---,0.00,VWS V14.01,2013-03-03 07:24:00,
2013-03-03 01:29:00,34.1,27.0,30.24,NNW,329,0.0,0.0,75,0.00,,---,0.00,VWS V14.01,2013-03-03 07:29:00,
2013-03-03 01:34:00,33.8,27.0,30.24,NNW,329,0.0,0.0,76,0.00,,---,0.00,VWS V14.01,2013-03-03 07:34:00,
2013-03-03 01:39:00,34.1,27.0,30.24,NNW,329,0.0,0.0,75,0.00,,---,0.00,VWS V14.01,2013-03-03 07:39:00,
2013-03-03 01:44:00,34.4,26.7,30.24,NNW,329,0.0,0.0,73,0.00,,---,0.00,VWS V14.01,2013-03-03 07:44:00,
2013-03-03 01:49:00,33.7,27.0,30.23,NNW,329,0.0,0.0,76,0.00,,---,0.00,VWS V14.01,2013-03-03 07:49:00,
2013-03-03 01:54:00,33.3,26.6,30.23,NNW,329,0.0,0.0,76,0.00,,---,0.00,VWS V14.01,2013-03-03 07:54:00,
2013-03-03 01:59:00,33.1,26.7,30.23,NNW,329,0.0,0.0,77,0.00,,---,0.00,VWS V14.01,2013-03-03 07:59:00,
2013-03-03 02:04:00,33.3,26.6,30.24,NNW,329,0.0,0.0,76,0.00,,---,0.00,VWS V14.01,2013-03-03 08:04:00,
2013-03-03 02:09:00,34.0,26.3,30.23,NNW,329,0.0,0.0,73,0.00,,---,0.00,VWS V14.01,2013-03-03 08:09:00,
2013-03-03 02:14:00,34.2,26.5,30.23,NNW,329,0.0,0.0,73,0.00,,---,0.00,VWS V14.01,2013-03-03 08:14:00,
2013-03-03 02:19:00,34.8,26.4,30.24,NNW,329,0.0,0.0,71,0.00,,---,0.00,VWS V14.01,2013-03-03 08:19:00,
2013-03-03 02:25:00,35.2,26.8,30.23,NNW,329,0.0,0.0,71,0.00,,---,0.00,VWS V14.01,2013-03-03 08:25:00,
2013-03-03 02:30:00,35.1,26.7,30.23,NNW,329,0.0,0.0,71,0.00,,---,0.00,VWS V14.01,2013-03-03 08:30:00,
2013-03-03 02:35:00,34.8,26.4,30.23,NNW,329,0.0,0.0,71,0.00,,---,0.00,VWS V14.01,2013-03-03 08:35:00,
2013-03-03 02:40:00,34.0,26.3,30.23,NNW,329,0.0,0.0,73,0.00,,---,0.00,VWS V14.01,2013-03-03 08:40:00,
2013-03-03 02:45:00,33.4,26.0,30.22,NNW,329,0.0,0.0,74,0.00,,---,0.00,VWS V14.01,2013-03-03 08:45:00,
2013-03-03 02:50:00,33.0,26.0,30.23,NNW,329,0.0,0.0,75,0.00,,---,0.00,VWS V14.01,2013-03-03 08:50:00,
2013-03-03 02:55:00,32.6,25.9,30.22,NNW,329,0.0,0.0,76,0.00,,---,0.00,VWS V14.01,2013-03-03 08:55:00,
2013-03-03 03:00:00,32.1,26.0,30.22,NNW,329,0.0,0.0,78,0.00,,---,0.00,VWS V14.01,2013-03-03 09:00:00,
2013-03-03 03:05:00,31.9,25.8,30.22,NNW,329,0.0,0.0,78,0.00,,---,0.00,VWS V14.01,2013-03-03 09:05:00,
2013-03-03 03:10:00,32.1,25.7,30.22,NNW,329,0.0,0.0,77,0.00,,---,0.00,VWS V14.01,2013-03-03 09:10:00,
2013-03-03 03:15:00,32.3,25.9,30.22,NNW,329,0.0,0.0,77,0.00,,---,0.00,VWS V14.01,2013-03-03 09:15:00,
2013-03-03 03:20:00,32.0,25.9,30.22,NNW,329,0.0,0.0,78,0.00,,---,0.00,VWS V14.01,2013-03-03 09:20:00,
2013-03-03 03:26:00,31.8,26.0,30.21,NNW,329,0.0,0.0,79,0.00,,---,0.00,VWS V14.01,2013-03-03 09:26:00,
2013-03-03 03:31:00,31.5,26.0,30.22,NNW,329,0.0,0.0,80,0.00,,---,0.00,VWS V14.01,2013-03-03 09:31:00,
2013-03-03 03:36:00,31.6,25.9,30.21,NNW,329,0.0,0.0,79,0.00,,---,0.00,VWS V14.01,2013-03-03 09:36:00,
2013-03-03 03:41:00,31.9,26.4,30.21,NNW,329,0.0,0.0,80,0.00,,---,0.00,VWS V14.01,2013-03-03 09:41:00,
2013-03-03 03:46:00,31.9,26.1,30.21,NNW,329,0.0,0.0,79,0.00,,---,0.00,VWS V14.01,2013-03-03 09:46:00,
2013-03-03 03:51:00,31.9,26.1,30.21,NNW,329,0.0,0.0,79,0.00,,---,0.00,VWS V14.01,2013-03-03 09:51:00,
2013-03-03 03:56:00,31.9,26.1,30.20,NNW,329,0.0,0.0,79,0.00,,---,0.00,VWS V14.01,2013-03-03 09:56:00,
2013-03-03 04:01:00,31.7,25.9,30.20,NNW,329,0.0,0.0,79,0.00,,---,0.00,VWS V14.01,2013-03-03 10:01:00,
2013-03-03 04:06:00,31.5,26.0,30.20,NNW,329,0.0,0.0,80,0.00,,---,0.00,VWS V14.01,2013-03-03 10:06:00,
2013-03-03 04:11:00,31.2,26.1,30.20,NNW,329,0.0,0.0,81,0.00,,---,0.00,VWS V14.01,2013-03-03 10:11:00,
2013-03-03 04:16:00,31.2,26.1,30.19,NNW,329,0.0,0.0,81,0.00,,---,0.00,VWS V14.01,2013-03-03 10:16:00,
2013-03-03 04:21:00,31.2,26.1,30.19,NNW,329,0.0,0.0,81,0.00,,---,0.00,VWS V14.01,2013-03-03 10:21:00,
2013-03-03 04:26:00,31.1,26.0,30.19,NNW,329,0.0,0.0,81,0.00,,---,0.00,VWS V14.01,2013-03-03 10:26:00,
2013-03-03 04:31:00,31.2,26.1,30.19,NNW,329,0.0,0.0,81,0.00,,---,0.00,VWS V14.01,2013-03-03 10:31:00,
2013-03-03 04:36:00,31.4,26.2,30.19,NNW,329,0.0,0.0,81,0.00,,---,0.00,VWS V14.01,2013-03-03 10:36:00,
2013-03-03 04:42:00,31.9,26.7,30.19,NNW,329,0.0,0.0,81,0.00,,---,0.00,VWS V14.01,2013-03-03 10:42:00,
2013-03-03 04:47:00,32.3,26.8,30.19,NNW,329,0.0,0.0,80,0.00,,---,0.00,VWS V14.01,2013-03-03 10:47:00,
2013-03-03 04:52:00,32.7,26.9,30.20,NNW,329,0.0,0.0,79,0.00,,---,0.00,VWS V14.01,2013-03-03 10:52:00,
2013-03-03 04:57:00,32.7,26.6,30.20,NNW,329,0.0,0.0,78,0.00,,---,0.00,VWS V14.01,2013-03-03 10:57:00,
2013-03-03 05:02:00,32.7,26.3,30.20,NNW,329,0.0,0.0,77,0.00,,---,0.00,VWS V14.01,2013-03-03 11:02:00,
2013-03-03 05:07:00,32.9,26.2,30.20,NNW,329,0.0,0.0,76,0.00,,---,0.00,VWS V14.01,2013-03-03 11:07:00,
2013-03-03 05:12:00,33.3,26.2,30.20,NNW,329,0.0,0.0,75,0.00,,---,0.00,VWS V14.01,2013-03-03 11:12:00,
2013-03-03 05:17:00,33.4,26.0,30.20,NNW,329,0.0,0.0,74,0.00,,---,0.00,VWS V14.01,2013-03-03 11:17:00,
2013-03-03 05:22:00,33.3,25.9,30.20,NNW,329,0.0,0.0,74,0.00,,---,0.00,VWS V14.01,2013-03-03 11:22:00,
2013-03-03 05:27:00,33.2,25.8,30.20,West,263,0.0,0.0,74,0.00,,---,0.00,VWS V14.01,2013-03-03 11:27:00,
2013-03-03 05:33:00,32.9,25.9,30.20,WSW,252,0.0,0.0,75,0.00,,---,0.00,VWS V14.01,2013-03-03 11:33:00,
2013-03-03 05:38:00,32.6,25.9,30.20,WSW,252,0.0,0.0,76,0.00,,---,0.00,VWS V14.01,2013-03-03 11:38:00,
2013-03-03 05:43:00,32.3,25.6,30.20,WSW,252,0.0,0.0,76,0.00,,---,0.00,VWS V14.01,2013-03-03 11:43:00,
2013-03-03 05:48:00,32.0,25.6,30.20,WSW,252,0.0,0.0,77,0.00,,---,0.00,VWS V14.01,2013-03-03 11:48:00,
2013-03-03 05:53:00,31.8,25.4,30.20,WSW,252,0.0,0.0,77,0.00,,---,0.00,VWS V14.01,2013-03-03 11:53:00,
2013-03-03 05:58:00,31.9,25.5,30.20,WSW,251,0.0,0.0,77,0.00,,---,0.00,VWS V14.01,2013-03-03 11:58:00,
2013-03-03 06:03:00,32.2,25.5,30.20,WSW,251,0.0,0.0,76,0.00,,---,0.00,VWS V14.01,2013-03-03 12:03:00,
2013-03-03 06:08:00,32.8,25.8,30.20,WSW,251,0.0,0.0,75,0.00,,---,0.00,VWS V14.01,2013-03-03 12:08:00,
2013-03-03 06:13:00,33.5,26.1,30.20,WSW,251,0.0,0.0,74,0.00,,---,0.00,VWS V14.01,2013-03-03 12:13:00,
2013-03-03 06:18:00,33.7,25.6,30.20,WSW,251,0.0,0.0,72,0.00,,---,0.00,VWS V14.01,2013-03-03 12:18:00,
2013-03-03 06:24:00,33.9,25.8,30.20,WSW,250,0.0,0.0,72,0.00,,---,0.00,VWS V14.01,2013-03-03 12:24:00,
2013-03-03 06:29:00,34.1,25.7,30.20,WSW,250,0.0,0.0,71,0.00,,---,0.00,VWS V14.01,2013-03-03 12:29:00,
2013-03-03 06:34:00,34.0,25.6,30.20,WSW,250,0.0,0.0,71,0.00,,---,0.00,VWS V14.01,2013-03-03 12:34:00,
2013-03-03 06:39:00,33.7,25.6,30.20,WSW,250,0.0,0.0,72,0.00,,---,0.00,VWS V14.01,2013-03-03 12:39:00,
2013-03-03 06:44:00,33.6,25.5,30.20,WSW,250,0.0,0.0,72,0.00,,---,0.00,VWS V14.01,2013-03-03 12:44:00,
2013-03-03 06:49:00,33.5,25.8,30.20,WSW,250,0.0,0.0,73,0.00,,---,0.00,VWS V14.01,2013-03-03 12:49:00,
2013-03-03 06:54:00,33.4,26.0,30.20,WSW,250,0.0,0.0,74,0.00,,---,0.00,VWS V14.01,2013-03-03 12:54:00,
2013-03-03 06:59:00,33.4,26.3,30.19,WSW,250,0.0,0.0,75,0.00,,---,0.00,VWS V14.01,2013-03-03 12:59:00,
2013-03-03 07:04:00,33.4,25.7,30.19,WSW,250,0.0,0.0,73,0.00,,---,0.00,VWS V14.01,2013-03-03 13:04:00,
2013-03-03 07:09:00,33.4,25.7,30.19,WSW,250,0.0,0.0,73,0.00,,---,0.00,VWS V14.01,2013-03-03 13:09:00,
2013-03-03 07:14:00,33.6,26.2,30.19,WSW,250,0.0,0.0,74,0.00,,---,0.00,VWS V14.01,2013-03-03 13:14:00,
2013-03-03 07:19:00,34.0,26.3,30.19,WSW,250,0.0,0.0,73,0.00,,---,0.00,VWS V14.01,2013-03-03 13:19:00,
2013-03-03 07:24:00,34.5,26.8,30.19,SW,223,0.0,0.0,73,0.00,,---,0.00,VWS V14.01,2013-03-03 13:24:00,
2013-03-03 07:30:00,34.9,26.8,30.19,SW,215,0.0,0.0,72,0.00,,---,0.00,VWS V14.01,2013-03-03 13:30:00,
2013-03-03 07:35:00,35.4,27.0,30.19,SW,215,0.0,0.0,71,0.00,,---,0.00,VWS V14.01,2013-03-03 13:35:00,
2013-03-03 07:40:00,35.9,27.8,30.19,SW,215,0.0,0.0,72,0.00,,---,0.00,VWS V14.01,2013-03-03 13:40:00,
2013-03-03 07:45:00,36.4,28.2,30.19,SW,215,0.0,0.0,72,0.00,,---,0.00,VWS V14.01,2013-03-03 13:45:00,
2013-03-03 07:50:00,37.1,28.6,30.19,SSE,167,2.0,3.0,71,0.00,,---,0.00,VWS V14.01,2013-03-03 13:50:00,
2013-03-03 07:55:00,38.1,28.8,30.19,SSE,153,1.0,4.0,69,0.00,,---,0.00,VWS V14.01,2013-03-03 13:55:00,
2013-03-03 08:00:00,39.0,29.0,30.18,SE,144,2.0,4.0,67,0.00,,---,0.00,VWS V14.01,2013-03-03 14:00:00,
2013-03-03 08:05:00,39.8,28.6,30.18,SSE,153,3.0,4.0,64,0.00,,---,0.00,VWS V14.01,2013-03-03 14:05:00,
2013-03-03 08:10:00,40.7,29.1,30.18,SSE,149,0.0,8.0,63,0.00,,---,0.00,VWS V14.01,2013-03-03 14:10:00,
2013-03-03 08:15:00,41.6,28.4,30.18,SE,136,6.0,7.0,59,0.00,,---,0.00,VWS V14.01,2013-03-03 14:15:00,
2013-03-03 08:20:00,42.3,28.6,30.18,SE,144,5.0,6.0,58,0.00,,---,0.00,VWS V14.01,2013-03-03 14:20:00,
2013-03-03 08:26:00,43.1,28.0,30.19,South,184,8.0,8.0,55,0.00,,---,0.00,VWS V14.01,2013-03-03 14:26:00,
2013-03-03 08:31:00,43.8,27.3,30.19,SSE,163,4.0,7.0,52,0.00,,---,0.00,VWS V14.01,2013-03-03 14:31:00,
2013-03-03 08:36:00,44.5,27.5,30.19,SE,144,4.0,8.0,51,0.00,,---,0.00,VWS V14.01,2013-03-03 14:36:00,
2013-03-03 08:41:00,45.2,27.2,30.19,SSE,163,7.0,10.0,49,0.00,,---,0.00,VWS V14.01,2013-03-03 14:41:00,
2013-03-03 08:46:00,45.8,26.7,30.18,South,184,6.0,10.0,47,0.00,,---,0.00,VWS V14.01,2013-03-03 14:46:00,
2013-03-03 08:51:00,46.7,28.6,30.18,SSE,158,4.0,6.0,49,0.00,,---,0.00,VWS V14.01,2013-03-03 14:51:00,
2013-03-03 08:56:00,47.5,27.2,30.18,SSW,209,7.0,12.0,45,0.00,,---,0.00,VWS V14.01,2013-03-03 14:56:00,
2013-03-03 09:01:00,47.8,27.5,30.18,SSE,153,2.0,6.0,45,0.00,,---,0.00,VWS V14.01,2013-03-03 15:01:00,
2013-03-03 09:06:00,48.4,27.5,30.17,SE,134,4.0,12.0,44,0.00,,---,0.00,VWS V14.01,2013-03-03 15:06:00,
2013-03-03 09:11:00,48.9,26.8,30.17,South,176,7.0,13.0,42,0.00,,---,0.00,VWS V14.01,2013-03-03 15:11:00,
2013-03-03 09:16:00,49.2,27.1,30.18,SSE,150,7.0,12.0,42,0.00,,---,0.00,VWS V14.01,2013-03-03 15:16:00,
2013-03-03 09:21:00,49.5,26.8,30.17,SW,220,7.0,15.0,41,0.00,,---,0.00,VWS V14.01,2013-03-03 15:21:00,
2013-03-03 09:26:00,49.9,27.1,30.17,South,186,7.0,10.0,41,0.00,,---,0.00,VWS V14.01,2013-03-03 15:26:00,
2013-03-03 09:32:00,50.4,27.0,30.17,SSE,154,4.0,17.0,40,0.00,,---,0.00,VWS V14.01,2013-03-03 15:32:00,
2013-03-03 09:37:00,50.8,26.8,30.17,SSE,161,3.0,18.0,39,0.00,,---,0.00,VWS V14.01,2013-03-03 15:37:00,
2013-03-03 09:42:00,51.0,27.5,30.16,South,185,9.0,16.0,40,0.00,,---,0.00,VWS V14.01,2013-03-03 15:42:00,
2013-03-03 09:47:00,51.1,27.0,30.16,South,187,8.0,16.0,39,0.00,,---,0.00,VWS V14.01,2013-03-03 15:47:00,
2013-03-03 09:52:00,51.6,27.5,30.16,SSW,194,4.0,15.0,39,0.00,,---,0.00,VWS V14.01,2013-03-03 15:52:00,
2013-03-03 09:57:00,52.1,27.9,30.16,South,171,12.0,12.0,39,0.00,,---,0.00,VWS V14.01,2013-03-03 15:57:00,
2013-03-03 10:02:00,52.9,28.0,30.16,SSW,208,5.0,14.0,38,0.00,,---,0.00,VWS V14.01,2013-03-03 16:02:00,
2013-03-03 10:07:00,53.6,28.0,30.15,SW,233,13.0,15.0,37,0.00,,---,0.00,VWS V14.01,2013-03-03 16:07:00,
2013-03-03 10:12:00,54.2,28.5,30.15,SSW,206,5.0,14.0,37,0.00,,---,0.00,VWS V14.01,2013-03-03 16:12:00,
2013-03-03 10:17:00,54.5,28.1,30.15,SW,222,5.0,18.0,36,0.00,,---,0.00,VWS V14.01,2013-03-03 16:17:00,
2013-03-03 10:22:00,54.6,28.2,30.15,SSW,196,15.0,17.0,36,0.00,,---,0.00,VWS V14.01,2013-03-03 16:22:00,
2013-03-03 10:27:00,54.9,27.8,30.15,SSW,202,8.0,16.0,35,0.00,,---,0.00,VWS V14.01,2013-03-03 16:27:00,
2013-03-03 10:33:00,55.4,28.2,30.15,SSW,198,10.0,16.0,35,0.00,,---,0.00,VWS V14.01,2013-03-03 16:33:00,
2013-03-03 10:38:00,55.6,28.4,30.14,SE,140,6.0,14.0,35,0.00,,---,0.00,VWS V14.01,2013-03-03 16:38:00,
2013-03-03 10:43:00,56.2,28.9,30.14,South,184,19.0,19.0,35,0.00,,---,0.00,VWS V14.01,2013-03-03 16:43:00,
2013-03-03 10:48:00,56.2,28.2,30.13,SSW,205,11.0,15.0,34,0.00,,---,0.00,VWS V14.01,2013-03-03 16:48:00,
2013-03-03 10:53:00,56.7,27.9,30.13,South,179,17.0,17.0,33,0.00,,---,0.00,VWS V14.01,2013-03-03 16:53:00,
2013-03-03 10:58:00,57.2,28.4,30.13,SE,138,8.0,21.0,33,0.00,,---,0.00,VWS V14.01,2013-03-03 16:58:00,
2013-03-03 11:03:00,57.3,28.5,30.12,SSW,196,11.0,13.0,33,0.00,,---,0.00,VWS V14.01,2013-03-03 17:03:00,
2013-03-03 11:08:00,57.6,28.7,30.12,South,180,10.0,15.0,33,0.00,,---,0.00,VWS V14.01,2013-03-03 17:08:00,
2013-03-03 11:13:00,58.0,29.1,30.12,SSE,158,10.0,16.0,33,0.00,,---,0.00,VWS V14.01,2013-03-03 17:13:00,
2013-03-03 11:18:00,58.3,29.3,30.11,SE,145,8.0,16.0,33,0.00,,---,0.00,VWS V14.01,2013-03-03 17:18:00,
2013-03-03 11:23:00,58.9,29.9,30.11,SE,140,7.0,13.0,33,0.00,,---,0.00,VWS V14.01,2013-03-03 17:23:00,
2013-03-03 11:28:00,59.0,29.2,30.11,South,173,8.0,19.0,32,0.00,,---,0.00,VWS V14.01,2013-03-03 17:28:00,
2013-03-03 11:33:00,59.4,29.6,30.10,South,183,17.0,17.0,32,0.00,,---,0.00,VWS V14.01,2013-03-03 17:33:00,
2013-03-03 11:39:00,59.3,30.2,30.10,South,171,13.0,19.0,33,0.00,,---,0.00,VWS V14.01,2013-03-03 17:39:00,
2013-03-03 11:44:00,60.1,30.2,30.09,South,174,7.0,12.0,32,0.00,,---,0.00,VWS V14.01,2013-03-03 17:44:00,
2013-03-03 11:49:00,60.5,29.7,30.09,South,188,7.0,17.0,31,0.00,,---,0.00,VWS V14.01,2013-03-03 17:49:00,
2013-03-03 11:54:00,60.8,30.0,30.08,SSW,197,12.0,13.0,31,0.00,,---,0.00,VWS V14.01,2013-03-03 17:54:00,
2013-03-03 11:59:00,60.9,30.1,30.08,SW,221,12.0,16.0,31,0.00,,---,0.00,VWS V14.01,2013-03-03 17:59:00,
2013-03-03 12:04:00,60.9,30.1,30.08,South,176,12.0,22.0,31,0.00,,---,0.00,VWS V14.01,2013-03-03 18:04:00,
2013-03-03 12:09:00,61.5,30.6,30.07,SSE,162,9.0,18.0,31,0.00,,---,0.00,VWS V14.01,2013-03-03 18:09:00,
2013-03-03 12:14:00,61.9,30.1,30.07,SE,145,5.0,14.0,30,0.00,,---,0.00,VWS V14.01,2013-03-03 18:14:00,
2013-03-03 12:19:00,62.2,30.4,30.07,SSW,204,4.0,16.0,30,0.00,,---,0.00,VWS V14.01,2013-03-03 18:19:00,
2013-03-03 12:24:00,62.9,30.2,30.06,South,176,8.0,22.0,29,0.00,,---,0.00,VWS V14.01,2013-03-03 18:24:00,
2013-03-03 12:29:00,62.4,30.6,30.06,South,171,6.0,17.0,30,0.00,,---,0.00,VWS V14.01,2013-03-03 18:29:00,
2013-03-03 12:34:00,62.7,30.0,30.06,SE,145,14.0,18.0,29,0.00,,---,0.00,VWS V14.01,2013-03-03 18:34:00,
2013-03-03 12:39:00,63.1,30.4,30.06,South,173,4.0,16.0,29,0.00,,---,0.00,VWS V14.01,2013-03-03 18:39:00,
2013-03-03 12:45:00,63.7,30.9,30.05,SSE,157,6.0,15.0,29,0.00,,---,0.00,VWS V14.01,2013-03-03 18:45:00,
2013-03-03 12:50:00,63.8,31.8,30.05,South,179,7.0,13.0,30,0.00,,---,0.00,VWS V14.01,2013-03-03 18:50:00,
2013-03-03 12:55:00,64.3,32.2,30.05,South,178,9.0,14.0,30,0.00,,---,0.00,VWS V14.01,2013-03-03 18:55:00,
2013-03-03 13:00:00,64.5,31.6,30.04,South,174,7.0,16.0,29,0.00,,---,0.00,VWS V14.01,2013-03-03 19:00:00,
2013-03-03 13:05:00,65.1,32.1,30.03,South,181,8.0,12.0,29,0.00,,---,0.00,VWS V14.01,2013-03-03 19:05:00,
2013-03-03 13:10:00,64.7,30.9,30.03,South,180,11.0,16.0,28,0.00,,---,0.00,VWS V14.01,2013-03-03 19:10:00,
2013-03-03 13:15:00,65.0,32.0,30.02,SSW,207,7.0,14.0,29,0.00,,---,0.00,VWS V14.01,2013-03-03 19:15:00,
2013-03-03 13:20:00,65.8,31.8,30.02,SSW,196,14.0,19.0,28,0.00,,---,0.00,VWS V14.01,2013-03-03 19:20:00,
2013-03-03 13:25:00,65.7,32.6,30.02,SSE,148,4.0,12.0,29,0.00,,---,0.00,VWS V14.01,2013-03-03 19:25:00,
2013-03-03 13:30:00,66.1,32.1,30.01,South,173,8.0,16.0,28,0.00,,---,0.00,VWS V14.01,2013-03-03 19:30:00,
2013-03-03 13:35:00,66.0,31.1,30.00,South,187,11.0,18.0,27,0.00,,---,0.00,VWS V14.01,2013-03-03 19:35:00,
2013-03-03 13:40:00,66.5,32.4,30.00,SE,145,11.0,13.0,28,0.00,,---,0.00,VWS V14.01,2013-03-03 19:40:00,
2013-03-03 13:45:00,66.5,31.5,29.99,SW,215,8.0,18.0,27,0.00,,---,0.00,VWS V14.01,2013-03-03 19:45:00,
2013-03-03 13:50:00,66.5,32.4,29.99,SSE,153,8.0,16.0,28,0.00,,---,0.00,VWS V14.01,2013-03-03 19:50:00,
2013-03-03 13:56:00,66.6,31.6,29.98,SSE,166,15.0,17.0,27,0.00,,---,0.00,VWS V14.01,2013-03-03 19:56:00,
2013-03-03 14:01:00,66.6,31.6,29.98,South,180,13.0,15.0,27,0.00,,---,0.00,VWS V14.01,2013-03-03 20:01:00,
2013-03-03 14:06:00,66.6,32.5,29.97,SW,216,12.0,14.0,28,0.00,,---,0.00,VWS V14.01,2013-03-03 20:06:00,
2013-03-03 14:11:00,66.5,32.4,29.97,SW,215,9.0,15.0,28,0.00,,---,0.00,VWS V14.01,2013-03-03 20:11:00,
2013-03-03 14:16:00,66.7,31.7,29.97,SSW,195,9.0,17.0,27,0.00,,---,0.00,VWS V14.01,2013-03-03 20:16:00,
2013-03-03 14:21:00,67.0,32.8,29.97,SSE,163,12.0,13.0,28,0.00,,---,0.00,VWS V14.01,2013-03-03 20:21:00,
2013-03-03 14:26:00,67.5,32.4,29.96,South,173,6.0,18.0,27,0.00,,---,0.00,VWS V14.01,2013-03-03 20:26:00,
2013-03-03 14:31:00,67.6,33.4,29.95,SSW,196,8.0,15.0,28,0.00,,---,0.00,VWS V14.01,2013-03-03 20:31:00,
2013-03-03 14:36:00,67.6,32.5,29.95,South,176,10.0,17.0,27,0.00,,---,0.00,VWS V14.01,2013-03-03 20:36:00,
2013-03-03 14:41:00,67.3,33.1,29.95,SE,142,11.0,19.0,28,0.00,,---,0.00,VWS V14.01,2013-03-03 20:41:00,
2013-03-03 14:46:00,66.8,32.7,29.95,SSW,210,7.0,15.0,28,0.00,,---,0.00,VWS V14.01,2013-03-03 20:46:00,
2013-03-03 14:51:00,67.0,32.8,29.94,SSW,193,14.0,19.0,28,0.00,,---,0.00,VWS V14.01,2013-03-03 20:51:00,
2013-03-03 14:57:00,67.2,33.0,29.94,SSW,198,4.0,13.0,28,0.00,,---,0.00,VWS V14.01,2013-03-03 20:57:00,
2013-03-03 15:02:00,67.2,33.0,29.94,SSE,165,10.0,19.0,28,0.00,,---,0.00,VWS V14.01,2013-03-03 21:02:00,
2013-03-03 15:07:00,67.3,33.1,29.93,South,171,5.0,17.0,28,0.00,,---,0.00,VWS V14.01,2013-03-03 21:07:00,
2013-03-03 15:12:00,67.5,34.2,29.93,South,169,6.0,22.0,29,0.00,,---,0.00,VWS V14.01,2013-03-03 21:12:00,
2013-03-03 15:17:00,67.8,33.5,29.93,SSW,209,10.0,13.0,28,0.00,,---,0.00,VWS V14.01,2013-03-03 21:17:00,
2013-03-03 15:22:00,68.3,34.0,29.92,SE,124,8.0,16.0,28,0.00,,---,0.00,VWS V14.01,2013-03-03 21:22:00,
2013-03-03 15:27:00,68.2,34.8,29.92,South,175,13.0,18.0,29,0.00,,---,0.00,VWS V14.01,2013-03-03 21:27:00,
2013-03-03 15:32:00,68.5,34.1,29.92,SSE,157,11.0,24.0,28,0.00,,---,0.00,VWS V14.01,2013-03-03 21:32:00,
2013-03-03 15:37:00,68.6,34.2,29.92,SSW,207,4.0,19.0,28,0.00,,---,0.00,VWS V14.01,2013-03-03 21:37:00,
2013-03-03 15:42:00,68.5,34.1,29.91,South,170,8.0,22.0,28,0.00,,---,0.00,VWS V14.01,2013-03-03 21:42:00,
2013-03-03 15:47:00,68.7,34.3,29.91,South,186,4.0,17.0,28,0.00,,---,0.00,VWS V14.01,2013-03-03 21:47:00,
2013-03-03 15:52:00,68.9,35.4,29.90,South,184,7.0,14.0,29,0.00,,---,0.00,VWS V14.01,2013-03-03 21:52:00,
2013-03-03 15:57:00,69.0,34.6,29.90,SE,133,12.0,20.0,28,0.00,,---,0.00,VWS V14.01,2013-03-03 21:57:00,
2013-03-03 16:02:00,68.8,35.3,29.90,SSE,164,8.0,17.0,29,0.00,,---,0.00,VWS V14.01,2013-03-03 22:02:00,
2013-03-03 16:08:00,68.8,35.3,29.90,SSE,157,13.0,16.0,29,0.00,,---,0.00,VWS V14.01,2013-03-03 22:08:00,
2013-03-03 16:13:00,68.8,35.3,29.90,SSW,192,10.0,18.0,29,0.00,,---,0.00,VWS V14.01,2013-03-03 22:13:00,
2013-03-03 16:18:00,69.1,35.5,29.90,SE,132,9.0,17.0,29,0.00,,---,0.00,VWS V14.01,2013-03-03 22:18:00,
2013-03-03 16:23:00,68.7,35.2,29.89,South,188,5.0,13.0,29,0.00,,---,0.00,VWS V14.01,2013-03-03 22:23:00,
2013-03-03 16:28:00,68.8,36.1,29.89,SSW,208,8.0,11.0,30,0.00,,---,0.00,VWS V14.01,2013-03-03 22:28:00,
2013-03-03 16:33:00,68.9,36.2,29.89,SE,130,15.0,17.0,30,0.00,,---,0.00,VWS V14.01,2013-03-03 22:33:00,
2013-03-03 16:38:00,69.0,36.3,29.89,SE,132,10.0,13.0,30,0.00,,---,0.00,VWS V14.01,2013-03-03 22:38:00,
2013-03-03 16:43:00,68.5,35.9,29.89,South,170,14.0,14.0,30,0.00,,---,0.00,VWS V14.01,2013-03-03 22:43:00,
2013-03-03 16:48:00,68.7,36.0,29.88,SSE,157,12.0,13.0,30,0.00,,---,0.00,VWS V14.01,2013-03-03 22:48:00,
2013-03-03 16:53:00,68.8,36.1,29.88,SW,225,8.0,17.0,30,0.00,,---,0.00,VWS V14.01,2013-03-03 22:53:00,
2013-03-03 16:59:00,68.5,35.9,29.88,South,181,11.0,15.0,30,0.00,,---,0.00,VWS V14.01,2013-03-03 22:59:00,
2013-03-03 17:04:00,68.1,36.3,29.88,South,172,2.0,13.0,31,0.00,,---,0.00,VWS V14.01,2013-03-03 23:04:00,
2013-03-03 17:09:00,68.1,36.3,29.88,SSW,193,4.0,13.0,31,0.00,,---,0.00,VWS V14.01,2013-03-03 23:09:00,
2013-03-03 17:14:00,68.2,35.6,29.88,SSW,194,8.0,21.0,30,0.00,,---,0.00,VWS V14.01,2013-03-03 23:14:00,
2013-03-03 17:19:00,68.4,35.8,29.88,SSW,196,8.0,19.0,30,0.00,,---,0.00,VWS V14.01,2013-03-03 23:19:00,
2013-03-03 17:24:00,68.5,35.9,29.88,South,169,8.0,17.0,30,0.00,,---,0.00,VWS V14.01,2013-03-03 23:24:00,
2013-03-03 17:29:00,68.2,36.4,29.87,SSW,198,7.0,13.0,31,0.00,,---,0.00,VWS V14.01,2013-03-03 23:29:00,
2013-03-03 17:34:00,67.7,36.0,29.87,South,180,8.0,17.0,31,0.00,,---,0.00,VWS V14.01,2013-03-03 23:34:00,
2013-03-03 17:39:00,67.3,36.5,29.87,SSW,198,7.0,18.0,32,0.00,,---,0.00,VWS V14.01,2013-03-03 23:39:00,
2013-03-03 17:44:00,67.0,36.2,29.87,SSW,194,7.0,16.0,32,0.00,,---,0.00,VWS V14.01,2013-03-03 23:44:00,
2013-03-03 17:49:00,66.9,36.1,29.87,South,185,3.0,11.0,32,0.00,,---,0.00,VWS V14.01,2013-03-03 23:49:00,
2013-03-03 17:54:00,66.8,36.0,29.87,SE,145,3.0,12.0,32,0.00,,---,0.00,VWS V14.01,2013-03-03 23:54:00,
2013-03-03 17:59:00,66.6,36.6,29.87,SSW,197,7.0,11.0,33,0.00,,---,0.00,VWS V14.01,2013-03-03 23:59:00,
2013-03-03 18:04:00,66.4,36.5,29.86,SSE,161,2.0,17.0,33,0.00,,---,0.00,VWS V14.01,2013-03-04 00:04:00,
2013-03-03 18:10:00,66.2,36.3,29.86,SE,145,5.0,16.0,33,0.00,,---,0.00,VWS V14.01,2013-03-04 00:10:00,
2013-03-03 18:15:00,66.1,36.2,29.86,South,188,5.0,13.0,33,0.00,,---,0.00,VWS V14.01,2013-03-04 00:15:00,
2013-03-03 18:20:00,65.9,36.8,29.86,South,181,10.0,15.0,34,0.00,,---,0.00,VWS V14.01,2013-03-04 00:20:00,
2013-03-03 18:25:00,65.7,36.6,29.86,SSE,165,9.0,10.0,34,0.00,,---,0.00,VWS V14.01,2013-03-04 00:25:00,
2013-03-03 18:30:00,65.4,36.3,29.86,SE,136,5.0,16.0,34,0.00,,---,0.00,VWS V14.01,2013-03-04 00:30:00,
2013-03-03 18:35:00,65.1,36.8,29.85,SSE,159,4.0,11.0,35,0.00,,---,0.00,VWS V14.01,2013-03-04 00:35:00,
2013-03-03 18:40:00,64.9,36.6,29.85,SSE,160,10.0,18.0,35,0.00,,---,0.00,VWS V14.01,2013-03-04 00:40:00,
2013-03-03 18:45:00,64.7,36.4,29.84,SSE,154,5.0,18.0,35,0.00,,---,0.00,VWS V14.01,2013-03-04 00:45:00,
2013-03-03 18:50:00,64.5,36.3,29.84,South,190,14.0,14.0,35,0.00,,---,0.00,VWS V14.01,2013-03-04 00:50:00,
2013-03-03 18:55:00,64.3,36.8,29.84,SSE,150,12.0,13.0,36,0.00,,---,0.00,VWS V14.01,2013-03-04 00:55:00,
2013-03-03 19:00:00,64.2,36.7,29.84,SE,144,8.0,10.0,36,0.00,,---,0.00,VWS V14.01,2013-03-04 01:00:00,
2013-03-03 19:06:00,63.9,36.5,29.84,SE,140,4.0,13.0,36,0.00,,---,0.00,VWS V14.01,2013-03-04 01:06:00,
2013-03-03 19:11:00,63.6,36.2,29.83,SSE,150,6.0,11.0,36,0.00,,---,0.00,VWS V14.01,2013-03-04 01:11:00,
2013-03-03 19:16:00,63.4,36.7,29.83,SE,135,6.0,9.0,37,0.00,,---,0.00,VWS V14.01,2013-03-04 01:16:00,
2013-03-03 19:21:00,63.0,36.3,29.84,SE,146,5.0,12.0,37,0.00,,---,0.00,VWS V14.01,2013-03-04 01:21:00,
2013-03-03 19:26:00,62.7,36.8,29.83,South,171,4.0,14.0,38,0.00,,---,0.00,VWS V14.01,2013-03-04 01:26:00,
2013-03-03 19:31:00,62.5,36.6,29.83,South,182,7.0,12.0,38,0.00,,---,0.00,VWS V14.01,2013-03-04 01:31:00,
2013-03-03 19:36:00,62.3,36.4,29.83,SSE,157,7.0,10.0,38,0.00,,---,0.00,VWS V14.01,2013-03-04 01:36:00,
2013-03-03 19:41:00,62.2,37.0,29.83,SE,138,6.0,11.0,39,0.00,,---,0.00,VWS V14.01,2013-03-04 01:41:00,
2013-03-03 19:46:00,62.1,36.9,29.83,SE,144,8.0,9.0,39,0.00,,---,0.00,VWS V14.01,2013-03-04 01:46:00,
2013-03-03 19:51:00,62.0,36.8,29.83,SSE,167,4.0,14.0,39,0.00,,---,0.00,VWS V14.01,2013-03-04 01:51:00,
2013-03-03 19:56:00,62.0,36.8,29.83,South,180,4.0,13.0,39,0.00,,---,0.00,VWS V14.01,2013-03-04 01:56:00,
2013-03-03 20:01:00,61.9,37.3,29.83,SE,141,5.0,11.0,40,0.00,,---,0.00,VWS V14.01,2013-03-04 02:01:00,
2013-03-03 20:06:00,61.9,37.3,29.83,South,174,4.0,12.0,40,0.00,,---,0.00,VWS V14.01,2013-03-04 02:06:00,
2013-03-03 20:11:00,61.9,37.3,29.82,SSE,158,6.0,10.0,40,0.00,,---,0.00,VWS V14.01,2013-03-04 02:11:00,
2013-03-03 20:16:00,61.9,37.3,29.83,South,179,5.0,11.0,40,0.00,,---,0.00,VWS V14.01,2013-03-04 02:16:00,
2013-03-03 20:21:00,61.8,37.9,29.83,SE,142,10.0,10.0,41,0.00,,---,0.00,VWS V14.01,2013-03-04 02:21:00,
2013-03-03 20:26:00,61.8,37.9,29.83,SSE,167,7.0,11.0,41,0.00,,---,0.00,VWS V14.01,2013-03-04 02:26:00,
2013-03-03 20:32:00,61.9,38.0,29.83,SSE,152,13.0,13.0,41,0.00,,---,0.00,VWS V14.01,2013-03-04 02:32:00,
2013-03-03 20:37:00,61.9,38.0,29.83,ESE,108,15.0,15.0,41,0.00,,---,0.00,VWS V14.01,2013-03-04 02:37:00,
2013-03-03 20:42:00,61.9,38.0,29.82,SSE,158,8.0,10.0,41,0.00,,---,0.00,VWS V14.01,2013-03-04 02:42:00,
2013-03-03 20:47:00,62.0,38.7,29.83,SSE,159,11.0,12.0,42,0.00,,---,0.00,VWS V14.01,2013-03-04 02:47:00,
2013-03-03 20:52:00,62.1,38.8,29.83,SSE,163,5.0,12.0,42,0.00,,---,0.00,VWS V14.01,2013-03-04 02:52:00,
2013-03-03 20:57:00,62.1,38.8,29.83,SSW,203,1.0,12.0,42,0.00,,---,0.00,VWS V14.01,2013-03-04 02:57:00,
2013-03-03 21:02:00,62.2,38.8,29.83,SSW,211,7.0,14.0,42,0.00,,---,0.00,VWS V14.01,2013-03-04 03:02:00,
2013-03-03 21:07:00,62.2,38.8,29.83,South,188,6.0,12.0,42,0.00,,---,0.00,VWS V14.01,2013-03-04 03:07:00,
2013-03-03 21:12:00,62.3,39.5,29.83,SE,146,7.0,11.0,43,0.00,,---,0.00,VWS V14.01,2013-03-04 03:12:00,
2013-03-03 21:17:00,62.4,39.6,29.83,South,187,15.0,15.0,43,0.00,,---,0.00,VWS V14.01,2013-03-04 03:17:00,
2013-03-03 21:22:00,62.4,39.6,29.83,ESE,105,10.0,19.0,43,0.00,,---,0.00,VWS V14.01,2013-03-04 03:22:00,
2013-03-03 21:28:00,62.3,39.5,29.83,SSE,153,12.0,15.0,43,0.00,,---,0.00,VWS V14.01,2013-03-04 03:28:00,
2013-03-03 21:33:00,62.1,39.4,29.83,South,190,10.0,11.0,43,0.00,,---,0.00,VWS V14.01,2013-03-04 03:33:00,
2013-03-03 21:38:00,62.0,39.9,29.83,South,169,16.0,16.0,44,0.00,,---,0.00,VWS V14.01,2013-03-04 03:38:00,
2013-03-03 21:43:00,61.8,39.7,29.82,SSE,147,7.0,10.0,44,0.00,,---,0.00,VWS V14.01,2013-03-04 03:43:00,
2013-03-03 21:48:00,61.6,39.5,29.82,SSE,155,10.0,12.0,44,0.00,,---,0.00,VWS V14.01,2013-03-04 03:48:00,
2013-03-03 21:53:00,61.4,39.9,29.82,SE,142,6.0,12.0,45,0.00,,---,0.00,VWS V14.01,2013-03-04 03:53:00,
2013-03-03 21:58:00,61.1,40.2,29.82,SSE,154,7.0,12.0,46,0.00,,---,0.00,VWS V14.01,2013-03-04 03:58:00,
2013-03-03 22:03:00,60.7,39.8,29.82,SSE,165,4.0,11.0,46,0.00,,---,0.00,VWS V14.01,2013-03-04 04:03:00,
2013-03-03 22:08:00,60.4,40.1,29.82,South,184,4.0,10.0,47,0.00,,---,0.00,VWS V14.01,2013-03-04 04:08:00,
2013-03-03 22:13:00,60.3,40.0,29.82,SE,146,7.0,14.0,47,0.00,,---,0.00,VWS V14.01,2013-03-04 04:13:00,
2013-03-03 22:18:00,60.4,40.6,29.82,South,172,10.0,14.0,48,0.00,,---,0.00,VWS V14.01,2013-03-04 04:18:00,
2013-03-03 22:24:00,60.5,41.3,29.82,SSW,207,7.0,13.0,49,0.00,,---,0.00,VWS V14.01,2013-03-04 04:24:00,
2013-03-03 22:29:00,60.5,41.3,29.82,SSE,150,6.0,19.0,49,0.00,,---,0.00,VWS V14.01,2013-03-04 04:29:00,
2013-03-03 22:34:00,60.4,41.7,29.82,South,173,7.0,16.0,50,0.00,,---,0.00,VWS V14.01,2013-03-04 04:34:00,
2013-03-03 22:39:00,60.4,41.7,29.82,South,174,2.0,11.0,50,0.00,,---,0.00,VWS V14.01,2013-03-04 04:39:00,
2013-03-03 22:44:00,60.4,42.2,29.82,SSE,150,13.0,14.0,51,0.00,,---,0.00,VWS V14.01,2013-03-04 04:44:00,
2013-03-03 22:49:00,60.4,42.7,29.82,South,173,9.0,14.0,52,0.00,,---,0.00,VWS V14.01,2013-03-04 04:49:00,
2013-03-03 22:54:00,60.4,42.7,29.82,SE,142,8.0,12.0,52,0.00,,---,0.00,VWS V14.01,2013-03-04 04:54:00,
2013-03-03 22:59:00,60.3,43.1,29.82,SSE,156,15.0,15.0,53,0.00,,---,0.00,VWS V14.01,2013-03-04 04:59:00,
2013-03-03 23:00:00,60.3,43.1,29.82,SSW,205,12.0,15.0,53,0.00,,---,0.00,VWS V14.01,2013-03-04 05:00:00,
2013-03-03 23:05:00,60.3,43.1,29.82,SSW,194,7.0,16.0,53,0.00,,---,0.00,VWS V14.01,2013-03-04 05:05:00,
2013-03-03 23:10:00,60.2,43.5,29.81,South,190,5.0,10.0,54,0.00,,---,0.00,VWS V14.01,2013-03-04 05:10:00,
2013-03-03 23:15:00,60.1,43.4,29.81,SE,146,4.0,15.0,54,0.00,,---,0.00,VWS V14.01,2013-03-04 05:15:00,
2013-03-03 23:21:00,60.0,43.8,29.81,SSE,157,8.0,11.0,55,0.00,,---,0.00,VWS V14.01,2013-03-04 05:21:00,
2013-03-03 23:26:00,60.0,43.8,29.81,SSE,163,6.0,13.0,55,0.00,,---,0.00,VWS V14.01,2013-03-04 05:26:00,
2013-03-03 23:31:00,60.0,43.8,29.81,South,178,15.0,15.0,55,0.00,,---,0.00,VWS V14.01,2013-03-04 05:31:00,
2013-03-03 23:36:00,60.0,44.3,29.81,SSE,162,7.0,14.0,56,0.00,,---,0.00,VWS V14.01,2013-03-04 05:36:00,
2013-03-03 23:41:00,60.0,44.3,29.80,SE,144,16.0,18.0,56,0.00,,---,0.00,VWS V14.01,2013-03-04 05:41:00,
2013-03-03 23:46:00,60.1,44.4,29.81,South,184,13.0,14.0,56,0.00,,---,0.00,VWS V14.01,2013-03-04 05:46:00,
2013-03-03 23:51:00,60.0,44.3,29.80,South,175,9.0,14.0,56,0.00,,---,0.00,VWS V14.01,2013-03-04 05:51:00,
2013-03-03 23:56:00,59.9,44.2,29.80,SSW,202,7.0,19.0,56,0.00,,---,0.00,VWS V14.01,2013-03-04 05:56:00,